Time;durP1;ratioP1;P1;durP2;ratioP2;P2;SDS_P1;SDS_P2;PMS_P1;PMS_P2;Temp;Humidity;BMP_temperature;BMP_pressure;BME280_temperature;BME280_humidity;BME280_pressure;Samples;Min_cycle;Max_cycle;Signal;HPM_P1;HPM_P2
2021/10/03 00:00:24;;;;;;;15.80;3.13;;;;;16.50;100023.00;;;;4819028;29;20050;-74
2021/10/03 00:02:54;;;;;;;17.92;3.25;;;;;16.60;100004.00;;;;4818164;29;20067;-73
2021/10/03 00:05:25;;;;;;;19.23;3.10;;;;;16.40;100009.00;;;;4819831;29;20050;-75
2021/10/03 00:07:59;;;;;;;15.70;3.70;;;;;16.30;100015.00;;;;4819295;29;20306;-76
2021/10/03 00:10:30;;;;;;;15.00;3.50;;;;;16.10;100033.00;;;;4819901;29;20051;-75
2021/10/03 00:13:03;;;;;;;19.00;4.13;;;;;15.90;100028.00;;;;4819212;29;20046;-76
2021/10/03 00:15:34;;;;;;;12.57;3.42;;;;;15.80;100041.00;;;;4818245;29;20050;-76
2021/10/03 00:18:06;;;;;;;16.77;3.42;;;;;15.70;100030.00;;;;4802475;29;20077;-75
2021/10/03 00:20:38;;;;;;;22.33;3.33;;;;;15.50;100035.00;;;;4819150;29;20553;-76
2021/10/03 00:23:08;;;;;;;14.48;3.78;;;;;15.40;100027.00;;;;4818427;29;20050;-73
2021/10/03 00:25:38;;;;;;;15.82;3.60;;;;;15.30;100024.00;;;;4818516;29;20147;-75
2021/10/03 00:28:08;;;;;;;14.68;3.35;;;;;15.20;100015.00;;;;4818883;29;20100;-76
2021/10/03 00:30:40;;;;;;;15.60;3.40;;;;;15.10;100003.00;;;;4818768;29;20054;-74
2021/10/03 00:33:11;;;;;;;14.43;3.35;;;;;15.20;100009.00;;;;4819147;29;20046;-75
2021/10/03 00:35:41;;;;;;;15.32;3.42;;;;;15.20;100001.00;;;;4818548;29;20122;-75
2021/10/03 00:38:10;;;;;;;20.70;3.80;;;;;15.20;100012.00;;;;4818176;29;20054;-75
2021/10/03 00:40:42;;;;;;;11.38;3.05;;;;;15.10;100003.00;;;;4818588;29;20050;-76
2021/10/03 00:43:13;;;;;;;12.35;3.00;;;;;15.10;100010.00;;;;4809710;29;20051;-75
2021/10/03 00:45:44;;;;;;;17.15;3.88;;;;;15.20;99989.00;;;;4800275;29;20047;-75
2021/10/03 00:48:14;;;;;;;15.60;4.07;;;;;15.10;99983.00;;;;4797269;29;20074;-75
2021/10/03 00:50:50;;;;;;;14.55;3.22;;;;;15.00;100003.00;;;;4797566;29;20051;-75
2021/10/03 00:53:19;;;;;;;16.02;3.53;;;;;15.00;99979.00;;;;4799793;29;20046;-74
2021/10/03 00:55:49;;;;;;;15.30;3.38;;;;;15.00;99978.00;;;;4800537;29;20118;-76
2021/10/03 00:58:19;;;;;;;17.85;3.28;;;;;15.00;99968.00;;;;4799114;29;20059;-73
2021/10/03 01:00:49;;;;;;;16.40;3.42;;;;;15.00;99980.00;;;;4800586;29;20108;-76
2021/10/03 01:03:20;;;;;;;15.55;3.38;;;;;14.90;99970.00;;;;4798950;29;20054;-74
2021/10/03 01:05:49;;;;;;;21.58;3.70;;;;;14.80;99969.00;;;;4798100;29;20141;-78
2021/10/03 01:08:19;;;;;;;0.98;0.52;;;;;14.80;99957.00;;;;4799492;29;20058;-77
2021/10/03 01:10:49;;;;;;;0.30;0.30;;;;;14.90;99941.00;;;;4797457;29;20058;-76
2021/10/03 01:13:18;;;;;;;1.90;0.43;;;;;14.90;99926.00;;;;4800093;29;20125;-77
2021/10/03 01:15:49;;;;;;;1.73;0.50;;;;;15.00;99946.00;;;;4799375;29;20404;-76
2021/10/03 01:18:19;;;;;;;19.15;3.05;;;;;15.00;99926.00;;;;4797666;29;20038;-76
2021/10/03 01:20:49;;;;;;;19.35;3.63;;;;;15.10;99933.00;;;;4799200;29;20095;-78
2021/10/03 01:23:19;;;;;;;14.18;3.08;;;;;15.10;99937.00;;;;4799048;29;20415;-75
2021/10/03 01:25:51;;;;;;;13.15;4.53;;;;;15.20;99921.00;;;;4798324;29;20039;-78
2021/10/03 01:28:20;;;;;;;20.88;4.38;;;;;15.20;99923.00;;;;4797388;29;20138;-75
2021/10/03 01:30:52;;;;;;;14.25;3.33;;;;;15.20;99918.00;;;;4782797;29;20062;-79
2021/10/03 01:33:27;;;;;;;18.05;3.40;;;;;15.20;99917.00;;;;4799964;29;20798;-75
2021/10/03 01:35:57;;;;;;;14.55;3.30;;;;;15.20;99898.00;;;;4799337;29;20043;-75
2021/10/03 01:38:26;;;;;;;14.60;3.53;;;;;15.20;99887.00;;;;4799486;29;20120;-79
2021/10/03 01:40:56;;;;;;;23.92;4.68;;;;;15.30;99892.00;;;;4782605;29;20055;-75
2021/10/03 01:43:26;;;;;;;16.85;3.95;;;;;15.40;99897.00;;;;4782836;29;20459;-75
2021/10/03 01:45:55;;;;;;;21.02;4.22;;;;;15.30;99891.00;;;;4802196;29;20525;-77
2021/10/03 01:48:46;;;;;;;21.63;5.60;;;;;15.20;99873.00;;;;4816890;29;20062;-75
2021/10/03 01:51:16;;;;;;;;;;;;;15.20;99879.00;;;;4817740;29;20046;-75
2021/10/03 01:53:52;;;;;;;14.68;3.42;;;;;15.20;99871.00;;;;4817391;29;19928;-75
2021/10/03 01:56:23;;;;;;;17.50;3.33;;;;;15.10;99836.00;;;;4817616;29;20043;-75
2021/10/03 01:58:58;;;;;;;25.00;3.83;;;;;15.10;99833.00;;;;4817928;29;20058;-77
2021/10/03 02:01:29;;;;;;;15.43;3.33;;;;;15.10;99844.00;;;;4817453;29;20053;-74
2021/10/03 02:04:04;;;;;;;19.50;3.95;;;;;15.10;99849.00;;;;4817738;29;20556;-76
2021/10/03 02:06:41;;;;;;;24.70;4.25;;;;;15.20;99863.00;;;;4817362;29;20121;-75
2021/10/03 02:09:14;;;;;;;19.73;3.97;;;;;15.20;99836.00;;;;4817929;29;20054;-78
2021/10/03 02:11:46;;;;;;;19.55;3.70;;;;;15.20;99831.00;;;;4817879;29;20050;-77
2021/10/03 02:14:18;;;;;;;22.95;4.63;;;;;15.20;99850.00;;;;4817194;29;20062;-72
2021/10/03 02:16:48;;;;;;;20.08;3.53;;;;;15.20;99848.00;;;;4817280;29;20050;-75
2021/10/03 02:19:17;;;;;;;24.58;4.38;;;;;15.30;99846.00;;;;4817734;29;20053;-76
2021/10/03 02:21:48;;;;;;;18.65;3.95;;;;;15.20;99846.00;;;;4817486;29;20061;-74
2021/10/03 02:24:17;;;;;;;14.52;3.58;;;;;15.10;99861.00;;;;4817579;29;20057;-78
2021/10/03 02:26:46;;;;;;;16.95;4.00;;;;;15.10;99840.00;;;;4817263;29;20050;-75
2021/10/03 02:29:16;;;;;;;20.27;4.10;;;;;15.00;99826.00;;;;4816891;29;20047;-75
2021/10/03 02:31:46;;;;;;;15.15;4.03;;;;;15.00;99847.00;;;;4817174;29;20057;-75
2021/10/03 02:34:15;;;;;;;17.67;3.92;;;;;15.00;99843.00;;;;4817130;29;20050;-74
2021/10/03 02:36:44;;;;;;;18.88;3.50;;;;;14.90;99819.00;;;;4817171;29;20111;-73
2021/10/03 02:39:14;;;;;;;16.05;3.78;;;;;14.90;99807.00;;;;4820758;29;20051;-76
2021/10/03 02:41:44;;;;;;;13.10;3.38;;;;;14.90;99806.00;;;;4820506;29;20065;-76
2021/10/03 02:44:13;;;;;;;25.42;3.85;;;;;14.80;99803.00;;;;4820956;29;20158;-74
2021/10/03 02:46:42;;;;;;;18.45;4.38;;;;;14.90;99821.00;;;;4819257;29;20434;-75
2021/10/03 02:49:12;;;;;;;16.52;3.83;;;;;15.10;99830.00;;;;4820822;29;20161;-72
2021/10/03 02:51:41;;;;;;;23.25;4.43;;;;;15.20;99847.00;;;;4832032;29;20046;-73
2021/10/03 02:54:11;;;;;;;13.48;3.60;;;;;15.20;99852.00;;;;4830698;29;20061;-74
2021/10/03 02:56:41;;;;;;;20.80;4.25;;;;;15.10;99865.00;;;;4808960;29;20046;-72
2021/10/03 02:59:10;;;;;;;21.95;3.88;;;;;15.00;99836.00;;;;4820688;29;20115;-74
2021/10/03 03:01:39;;;;;;;18.00;4.93;;;;;14.90;99848.00;;;;4818877;29;20454;-74
2021/10/03 03:04:09;;;;;;;18.77;3.80;;;;;14.90;99848.00;;;;4819616;29;20080;-74
2021/10/03 03:06:38;;;;;;;2.15;0.70;;;;;14.80;99859.00;;;;4825243;29;20058;-72
2021/10/03 03:09:08;;;;;;;16.98;3.20;;;;;14.80;99838.00;;;;4827073;29;20046;-74
2021/10/03 03:11:37;;;;;;;19.35;3.38;;;;;14.70;99827.00;;;;4828129;29;20058;-75
2021/10/03 03:14:09;;;;;;;18.02;3.95;;;;;14.70;99825.00;;;;4827177;29;20069;-73
2021/10/03 03:16:44;;;;;;;;;;;;;14.60;99838.00;;;;4827154;29;20419;-73
2021/10/03 03:19:14;;;;;;;24.88;4.03;;;;;14.60;99829.00;;;;4822080;29;19924;-76
2021/10/03 03:21:44;;;;;;;14.45;3.50;;;;;14.50;99819.00;;;;4819999;29;20046;-78
2021/10/03 03:24:14;;;;;;;12.43;3.92;;;;;14.50;99819.00;;;;4820275;29;20047;-73
2021/10/03 03:26:43;;;;;;;15.32;2.95;;;;;14.40;99830.00;;;;4819852;29;20047;-76
2021/10/03 03:29:13;;;;;;;21.30;3.72;;;;;14.40;99800.00;;;;4818055;29;20065;-77
2021/10/03 03:31:42;;;;;;;22.00;4.10;;;;;14.40;99820.00;;;;4819872;29;20056;-77
2021/10/03 03:34:12;;;;;;;17.27;3.72;;;;;14.40;99828.00;;;;4820115;29;20062;-75
2021/10/03 03:36:41;;;;;;;28.15;4.78;;;;;14.40;99824.00;;;;4819640;29;20068;-78
2021/10/03 03:39:10;;;;;;;19.05;3.85;;;;;14.30;99803.00;;;;4819634;29;20046;-76
2021/10/03 03:41:40;;;;;;;20.67;4.07;;;;;14.30;99829.00;;;;4819363;29;20074;-74
2021/10/03 03:44:09;;;;;;;18.10;4.07;;;;;14.20;99830.00;;;;4821281;29;20118;-76
2021/10/03 03:46:38;;;;;;;18.48;4.75;;;;;14.30;99847.00;;;;4820113;29;20435;-74
2021/10/03 03:49:08;;;;;;;17.65;4.38;;;;;14.20;99828.00;;;;4818791;29;20042;-75
2021/10/03 03:51:37;;;;;;;6.68;2.03;;;;;14.20;99810.00;;;;4819681;29;20419;-74
2021/10/03 03:54:07;;;;;;;18.27;4.53;;;;;14.10;99848.00;;;;4819046;29;20089;-76
2021/10/03 03:56:36;;;;;;;18.48;3.97;;;;;14.10;99823.00;;;;4819412;29;20054;-76
2021/10/03 03:59:06;;;;;;;18.52;3.92;;;;;14.10;99839.00;;;;4811969;29;20107;-77
2021/10/03 04:01:35;;;;;;;21.60;4.65;;;;;14.10;99853.00;;;;4819267;29;20056;-77
2021/10/03 04:04:05;;;;;;;17.30;4.18;;;;;14.20;99844.00;;;;4819109;29;20530;-74
2021/10/03 04:06:34;;;;;;;24.80;4.47;;;;;14.10;99846.00;;;;4819260;29;20091;-76
2021/10/03 04:09:06;;;;;;;31.92;5.60;;;;;14.20;99853.00;;;;4817818;29;20061;-74
2021/10/03 04:11:35;;;;;;;59.38;41.05;;;;;14.20;99840.00;;;;4818498;29;20129;-75
2021/10/03 04:14:05;;;;;;;17.38;4.72;;;;;14.10;99852.00;;;;4819272;29;20038;-76
2021/10/03 04:16:34;;;;;;;20.55;4.25;;;;;14.10;99819.00;;;;4819365;29;20050;-73
2021/10/03 04:19:03;;;;;;;25.38;4.28;;;;;14.00;99819.00;;;;4817354;29;20074;-75
2021/10/03 04:21:33;;;;;;;27.63;5.32;;;;;14.10;99818.00;;;;4818932;29;20918;-72
2021/10/03 04:24:02;;;;;;;19.67;5.00;;;;;14.10;99803.00;;;;4818721;29;20054;-75
2021/10/03 04:26:32;;;;;;;18.17;4.55;;;;;14.20;99819.00;;;;4819265;29;20477;-73
2021/10/03 04:29:03;;;;;;;26.15;5.50;;;;;14.30;99790.00;;;;4818819;29;20054;-78
2021/10/03 04:31:32;;;;;;;17.58;5.00;;;;;14.20;99821.00;;;;4818984;29;20050;-80
2021/10/03 04:34:01;;;;;;;13.77;4.60;;;;;14.20;99829.00;;;;4819153;29;20102;-76
2021/10/03 04:36:31;;;;;;;21.73;4.80;;;;;14.30;99803.00;;;;4819328;29;20568;-76
2021/10/03 04:39:00;;;;;;;21.48;4.43;;;;;14.20;99802.00;;;;4819202;29;20061;-76
2021/10/03 04:41:29;;;;;;;20.63;4.65;;;;;14.20;99789.00;;;;4818622;29;20054;-78
2021/10/03 04:43:59;;;;;;;15.82;3.45;;;;;14.20;99818.00;;;;4818340;29;20189;-74
2021/10/03 04:46:28;;;;;;;14.07;3.88;;;;;14.20;99792.00;;;;4818912;29;20456;-75
2021/10/03 04:48:57;;;;;;;17.25;4.18;;;;;14.30;99822.00;;;;4818691;29;20515;-78
2021/10/03 04:51:28;;;;;;;18.67;5.68;;;;;14.40;99826.00;;;;4818610;29;20050;-75
2021/10/03 04:53:57;;;;;;;11.32;4.30;;;;;14.30;99806.00;;;;4818830;29;20051;-74
2021/10/03 04:56:28;;;;;;;19.17;5.40;;;;;14.30;99792.00;;;;4818651;29;20062;-78
2021/10/03 04:58:57;;;;;;;;;;;;;14.30;99808.00;;;;4819718;29;20117;-75
2021/10/03 05:01:27;;;;;;;18.55;4.25;;;;;14.20;99792.00;;;;4818554;29;19933;-77
2021/10/03 05:03:56;;;;;;;21.20;4.53;;;;;14.20;99824.00;;;;4818851;29;20054;-76
2021/10/03 05:06:26;;;;;;;22.60;5.05;;;;;14.20;99826.00;;;;4818715;29;20054;-78
2021/10/03 05:08:56;;;;;;;14.80;5.32;;;;;14.30;99829.00;;;;4818124;29;20050;-74
2021/10/03 05:11:25;;;;;;;20.85;5.82;;;;;14.40;99826.00;;;;4818172;29;20077;-76
2021/10/03 05:13:54;;;;;;;13.63;5.10;;;;;14.40;99847.00;;;;4818610;29;20613;-76
2021/10/03 05:16:24;;;;;;;18.10;4.97;;;;;14.40;99845.00;;;;4818681;29;20404;-76
2021/10/03 05:18:53;;;;;;;14.95;4.70;;;;;14.40;99853.00;;;;4817860;29;20058;-76
2021/10/03 05:21:23;;;;;;;22.45;4.47;;;;;14.40;99855.00;;;;4817105;29;20514;-77
2021/10/03 05:23:52;;;;;;;22.98;4.88;;;;;14.50;99846.00;;;;4818351;29;20050;-77
2021/10/03 05:26:21;;;;;;;18.02;12.13;;;;;14.50;99852.00;;;;4818016;29;20054;-73
2021/10/03 05:28:51;;;;;;;21.13;4.88;;;;;14.50;99858.00;;;;4819081;29;20062;-74
2021/10/03 05:31:20;;;;;;;18.38;4.18;;;;;14.60;99848.00;;;;4818270;29;20103;-76
2021/10/03 05:33:51;;;;;;;24.50;4.85;;;;;14.60;99841.00;;;;4817504;29;20050;-77
2021/10/03 05:36:20;;;;;;;11.40;4.00;;;;;14.70;99843.00;;;;4817978;29;20559;-78
2021/10/03 05:38:49;;;;;;;15.38;4.38;;;;;14.80;99845.00;;;;4801336;29;20050;-76
2021/10/03 05:41:19;;;;;;;21.67;4.45;;;;;14.80;99863.00;;;;4817689;29;20050;-76
2021/10/03 05:43:48;;;;;;;15.82;4.45;;;;;14.80;99854.00;;;;4817740;29;20050;-77
2021/10/03 05:46:18;;;;;;;18.08;4.65;;;;;14.80;99842.00;;;;4817468;29;20119;-77
2021/10/03 05:48:47;;;;;;;14.43;4.03;;;;;14.80;99867.00;;;;4817696;29;20051;-76
2021/10/03 05:51:17;;;;;;;22.88;4.47;;;;;14.80;99870.00;;;;4818004;29;20059;-79
2021/10/03 05:53:46;;;;;;;17.77;4.60;;;;;14.70;99877.00;;;;4817941;29;20271;-79
2021/10/03 05:56:16;;;;;;;17.50;4.53;;;;;14.80;99865.00;;;;4818417;29;20069;-78
2021/10/03 05:58:45;;;;;;;15.02;4.28;;;;;14.80;99870.00;;;;4802008;29;20061;-80
2021/10/03 06:01:14;;;;;;;24.83;5.22;;;;;14.80;99869.00;;;;4817415;29;20050;-73
2021/10/03 06:03:44;;;;;;;16.42;4.57;;;;;14.80;99866.00;;;;4816659;29;20141;-76
2021/10/03 06:06:14;;;;;;;20.67;5.55;;;;;14.90;99861.00;;;;4817920;29;20046;-78
2021/10/03 06:08:44;;;;;;;22.65;5.75;;;;;15.00;99881.00;;;;4817450;29;20061;-75
2021/10/03 06:11:13;;;;;;;18.65;5.93;;;;;15.00;99851.00;;;;4817358;29;20046;-75
2021/10/03 06:13:42;;;;;;;22.35;6.35;;;;;15.10;99855.00;;;;4820422;29;20051;-77
2021/10/03 06:16:12;;;;;;;23.58;6.30;;;;;15.10;99842.00;;;;4821087;29;20518;-78
2021/10/03 06:18:42;;;;;;;25.13;5.80;;;;;15.20;99843.00;;;;4821344;29;20054;-73
2021/10/03 06:21:13;;;;;;;23.52;5.90;;;;;15.20;99856.00;;;;4821235;29;20067;-79
2021/10/03 06:23:45;;;;;;;21.92;6.03;;;;;15.20;99842.00;;;;4821082;29;20050;-75
2021/10/03 06:26:15;;;;;;;19.17;5.90;;;;;15.20;99829.00;;;;4820244;29;20785;-78
2021/10/03 06:28:45;;;;;;;23.38;5.75;;;;;15.10;99802.00;;;;4821819;29;20553;-74
2021/10/03 06:31:15;;;;;;;21.23;5.80;;;;;15.10;99797.00;;;;4820924;29;20042;-74
2021/10/03 06:33:44;;;;;;;23.42;5.88;;;;;15.10;99800.00;;;;4820335;29;20053;-78
2021/10/03 06:36:14;;;;;;;16.38;5.82;;;;;15.00;99782.00;;;;4820870;29;20133;-76
2021/10/03 06:38:43;;;;;;;23.67;5.75;;;;;15.00;99799.00;;;;4820052;29;20043;-77
2021/10/03 06:41:13;;;;;;;23.75;6.40;;;;;14.90;99811.00;;;;4820732;29;20619;-76
2021/10/03 06:43:42;;;;;;;19.50;5.28;;;;;14.90;99821.00;;;;4820250;29;20147;-78
2021/10/03 06:46:12;;;;;;;22.55;5.25;;;;;14.90;99810.00;;;;4820529;29;20054;-76
2021/10/03 06:48:42;;;;;;;23.45;5.93;;;;;14.90;99796.00;;;;4820302;29;20070;-75
2021/10/03 06:51:12;;;;;;;17.60;5.53;;;;;14.90;99822.00;;;;4820109;29;20047;-77
2021/10/03 06:53:42;;;;;;;17.25;15.65;;;;;15.00;99826.00;;;;4821081;29;20047;-76
2021/10/03 06:56:12;;;;;;;16.33;4.22;;;;;15.00;99827.00;;;;4820655;29;20054;-77
2021/10/03 06:58:41;;;;;;;13.20;4.72;;;;;15.10;99837.00;;;;4820364;29;20051;-76
2021/10/03 07:01:16;;;;;;;15.65;4.35;;;;;15.10;99826.00;;;;4819913;29;20591;-76
2021/10/03 07:03:47;;;;;;;17.50;5.17;;;;;15.20;99845.00;;;;4820188;29;20050;-74
2021/10/03 07:06:16;;;;;;;16.77;4.82;;;;;15.20;99827.00;;;;4819418;29;20418;-78
2021/10/03 07:08:46;;;;;;;12.52;4.53;;;;;15.30;99853.00;;;;4820090;29;20050;-74
2021/10/03 07:11:15;;;;;;;14.65;4.88;;;;;15.30;99840.00;;;;4803813;29;20062;-75
2021/10/03 07:13:44;;;;;;;15.25;5.13;;;;;15.30;99857.00;;;;4819767;29;20059;-78
2021/10/03 07:16:15;;;;;;;23.13;5.65;;;;;15.40;99864.00;;;;4819947;29;20117;-76
2021/10/03 07:18:45;;;;;;;13.73;4.88;;;;;15.40;99830.00;;;;4826395;29;20074;-73
2021/10/03 07:21:14;;;;;;;18.40;4.97;;;;;15.40;99833.00;;;;4832218;29;20440;-78
2021/10/03 07:23:44;;;;;;;21.55;5.93;;;;;15.30;99811.00;;;;4821466;29;20738;-75
2021/10/03 07:26:14;;;;;;;22.75;6.07;;;;;15.20;99798.00;;;;4817942;29;20144;-75
2021/10/03 07:28:43;;;;;;;22.02;6.22;;;;;15.20;99793.00;;;;4823310;29;20353;-76
2021/10/03 07:31:13;;;;;;;29.63;6.45;;;;;15.10;99817.00;;;;4821740;29;20046;-79
2021/10/03 07:33:44;;;;;;;27.30;6.70;;;;;15.10;99810.00;;;;4803418;29;20537;-77
2021/10/03 07:36:19;;;;;;;54.72;8.05;;;;;15.10;99805.00;;;;4819212;29;20153;-79
2021/10/03 07:38:49;;;;;;;44.38;9.32;;;;;14.90;99799.00;;;;4819232;29;20061;-80
2021/10/03 07:41:20;;;;;;;48.20;8.27;;;;;14.90;99810.00;;;;4819133;29;20049;-78
2021/10/03 07:43:50;;;;;;;26.02;8.20;;;;;14.90;99834.00;;;;4819153;29;20610;-78
2021/10/03 07:46:21;;;;;;;70.00;11.57;;;;;14.90;99841.00;;;;4819509;29;20050;-79
2021/10/03 07:48:52;;;;;;;30.98;10.70;;;;;14.90;99842.00;;;;4803428;29;20049;-77
2021/10/03 07:51:23;;;;;;;40.53;11.38;;;;;14.90;99842.00;;;;4819430;29;20061;-78
2021/10/03 07:53:53;;;;;;;26.00;10.60;;;;;14.90;99855.00;;;;4819327;29;20087;-77
2021/10/03 07:56:22;;;;;;;33.60;11.00;;;;;14.80;99852.00;;;;4817953;29;20077;-77
2021/10/03 07:58:52;;;;;;;58.38;12.38;;;;;14.80;99842.00;;;;4818195;29;20065;-77
2021/10/03 08:01:21;;;;;;;30.35;11.48;;;;;14.90;99853.00;;;;4819319;29;20050;-75
2021/10/03 08:03:51;;;;;;;32.13;11.48;;;;;15.00;99849.00;;;;4818892;29;20102;-78
2021/10/03 08:06:20;;;;;;;32.67;11.68;;;;;15.00;99864.00;;;;4819960;29;20042;-78
2021/10/03 08:08:49;;;;;;;37.60;11.88;;;;;15.00;99871.00;;;;4819282;29;20050;-76
2021/10/03 08:11:19;;;;;;;24.83;10.98;;;;;14.90;99874.00;;;;4818096;29;20430;-76
2021/10/03 08:13:49;;;;;;;36.80;11.02;;;;;14.90;99875.00;;;;4819307;29;20054;-77
2021/10/03 08:16:19;;;;;;;39.72;11.05;;;;;14.90;99882.00;;;;4819442;29;20054;-77
2021/10/03 08:18:49;;;;;;;36.28;11.23;;;;;14.90;99890.00;;;;4819186;29;20439;-76
2021/10/03 08:21:18;;;;;;;35.15;11.80;;;;;14.90;99878.00;;;;4819223;29;20530;-76
2021/10/03 08:23:47;;;;;;;36.35;11.63;;;;;14.90;99866.00;;;;4818709;29;20103;-76
2021/10/03 08:26:17;;;;;;;41.75;12.50;;;;;14.90;99846.00;;;;4818008;29;20410;-77
2021/10/03 08:28:47;;;;;;;55.33;13.13;;;;;14.90;99845.00;;;;4818676;29;20533;-77
2021/10/03 08:31:16;;;;;;;40.60;12.43;;;;;14.90;99843.00;;;;4818589;29;20050;-77
2021/10/03 08:33:46;;;;;;;63.65;14.10;;;;;14.90;99834.00;;;;4819097;29;20510;-77
2021/10/03 08:36:15;;;;;;;35.80;11.43;;;;;14.90;99821.00;;;;4817450;29;20061;-77
2021/10/03 08:38:45;;;;;;;32.65;11.70;;;;;14.90;99812.00;;;;4818952;29;20418;-77
2021/10/03 08:41:15;;;;;;;34.58;12.07;;;;;14.90;99804.00;;;;4818812;29;20063;-77
2021/10/03 08:43:45;;;;;;;44.42;12.98;;;;;14.90;99801.00;;;;4818743;29;20050;-77
2021/10/03 08:46:15;;;;;;;53.08;13.20;;;;;14.80;99819.00;;;;4818591;29;20046;-76
2021/10/03 08:48:46;;;;;;;42.70;12.00;;;;;14.80;99810.00;;;;4818894;29;20221;-77
2021/10/03 08:51:15;;;;;;;34.50;11.75;;;;;14.70;99834.00;;;;4818779;29;20049;-78
2021/10/03 08:53:44;;;;;;;45.85;13.93;;;;;14.80;99847.00;;;;4818733;29;20422;-77
2021/10/03 08:56:15;;;;;;;39.40;14.27;;;;;14.90;99834.00;;;;4802653;29;20073;-77
2021/10/03 08:58:44;;;;;;;68.65;14.27;;;;;14.90;99849.00;;;;4801934;29;20077;-75
2021/10/03 09:01:14;;;;;;;34.00;12.35;;;;;14.90;99865.00;;;;4818828;29;20166;-77
2021/10/03 09:03:44;;;;;;;42.88;12.45;;;;;15.00;99884.00;;;;4818417;29;20092;-77
2021/10/03 09:06:15;;;;;;;41.78;12.35;;;;;15.00;99888.00;;;;4818049;29;20554;-76
2021/10/03 09:08:49;;;;;;;44.72;12.48;;;;;15.00;99889.00;;;;4816189;29;20058;-76
2021/10/03 09:11:19;;;;;;;60.28;13.90;;;;;15.10;99889.00;;;;4819225;29;20058;-76
2021/10/03 09:13:53;;;;;;;41.67;12.77;;;;;15.10;99911.00;;;;4818776;29;20046;-76
2021/10/03 09:16:37;;;;;;;38.88;12.95;;;;;15.10;99905.00;;;;4818717;29;20527;-76
2021/10/03 09:19:14;;;;;;;40.25;13.43;;;;;15.10;99915.00;;;;4817529;29;20054;-77
2021/10/03 09:21:45;;;;;;;43.08;12.85;;;;;15.10;99897.00;;;;4817751;29;20496;-77
2021/10/03 09:24:14;;;;;;;41.78;12.88;;;;;15.10;99903.00;;;;4801557;29;20054;-76
2021/10/03 09:27:03;;;;;;;38.45;13.00;;;;;15.10;99913.00;;;;4817943;29;20110;-76
2021/10/03 09:29:36;;;;;;;44.65;12.27;;;;;15.10;99916.00;;;;4816579;29;20058;-75
2021/10/03 09:32:07;;;;;;;37.25;11.95;;;;;15.20;99909.00;;;;4818513;29;21210;-77
2021/10/03 09:34:38;;;;;;;42.92;13.88;;;;;15.20;99914.00;;;;4818699;29;20058;-76
2021/10/03 09:37:29;;;;;;;42.92;13.80;;;;;15.30;99922.00;;;;4818446;29;20054;-76
2021/10/03 09:40:06;;;;;;;54.50;13.23;;;;;15.30;99937.00;;;;4818462;29;20111;-77
2021/10/03 09:42:36;;;;;;;49.58;13.70;;;;;15.30;99950.00;;;;4817871;29;20562;-76
2021/10/03 09:45:14;;;;;;;37.35;12.68;;;;;15.20;99947.00;;;;4817810;29;20419;-77
2021/10/03 09:47:45;;;;;;;32.60;11.82;;;;;15.30;99969.00;;;;4817130;29;20042;-78
2021/10/03 09:50:16;;;;;;;32.90;13.18;;;;;15.30;99975.00;;;;4817574;29;20541;-79
2021/10/03 09:52:45;;;;;;;48.03;13.23;;;;;15.30;99990.00;;;;4817957;29;20072;-78
2021/10/03 09:55:14;;;;;;;28.83;11.65;;;;;15.20;99995.00;;;;4818185;29;20057;-78
2021/10/03 09:57:44;;;;;;;32.90;11.52;;;;;15.20;100019.00;;;;4817755;29;20050;-77
2021/10/03 10:00:16;;;;;;;23.30;7.72;;;;;15.10;100068.00;;;;4800768;29;20058;-78
2021/10/03 10:02:47;;;;;;;20.05;9.30;;;;;15.20;100120.00;;;;4817034;29;20070;-80
2021/10/03 10:05:25;;;;;;;23.50;9.63;;;;;15.20;100128.00;;;;4817118;29;20386;-78
2021/10/03 10:07:56;;;;;;;29.67;9.15;;;;;15.30;100137.00;;;;4817505;29;20046;-76
2021/10/03 10:10:28;;;;;;;39.75;10.38;;;;;15.30;100113.00;;;;4818439;29;20070;-78
2021/10/03 10:13:15;;;;;;;25.42;8.35;;;;;15.20;100109.00;;;;4817711;29;20125;-77
2021/10/03 10:15:44;;;;;;;20.15;7.00;;;;;15.30;100056.00;;;;4817938;29;20070;-79
2021/10/03 10:18:25;;;;;;;21.42;6.50;;;;;15.20;100053.00;;;;4817306;29;20135;-77
2021/10/03 10:20:56;;;;;;;24.83;7.63;;;;;15.20;100047.00;;;;4817419;29;20119;-76
2021/10/03 10:23:30;;;;;;;20.02;6.43;;;;;15.20;100017.00;;;;4816924;29;20060;-78
2021/10/03 10:26:00;;;;;;;10.52;5.80;;;;;15.20;100010.00;;;;4817550;29;20460;-78
2021/10/03 10:28:30;;;;;;;18.90;6.50;;;;;15.20;100006.00;;;;4817407;29;20054;-77
2021/10/03 10:31:11;;;;;;;24.50;6.15;;;;;15.20;99998.00;;;;4817182;29;20105;-79
2021/10/03 10:33:53;;;;;;;51.38;9.40;;;;;15.30;99996.00;;;;4817051;29;20430;-79
2021/10/03 10:36:33;;;;;;;30.05;8.55;;;;;15.40;99978.00;;;;4815797;29;20438;-77
2021/10/03 10:39:09;;;;;;;17.42;6.45;;;;;15.30;99970.00;;;;4817466;29;20050;-76
2021/10/03 10:41:44;;;;;;;22.95;7.38;;;;;15.30;99929.00;;;;4817025;29;20050;-81
2021/10/03 10:44:28;;;;;;;25.02;7.60;;;;;15.40;99908.00;;;;4816894;29;20082;-82
2021/10/03 10:47:19;;;;;;;23.73;7.22;;;;;15.40;99863.00;;;;4817840;29;20503;-82
2021/10/03 10:49:52;;;;;;;20.42;6.25;;;;;15.50;99824.00;;;;4816674;29;20086;-79
2021/10/03 10:52:22;;;;;;;21.30;6.07;;;;;15.50;99788.00;;;;4817628;29;20130;-83
2021/10/03 10:55:09;;;;;;;11.48;5.53;;;;;15.60;99783.00;;;;4802395;29;20145;-79
2021/10/03 10:57:51;;;;;;;8.90;5.00;;;;;15.60;99788.00;;;;4819607;29;20066;-79
2021/10/03 11:00:30;;;;;;;12.45;3.80;;;;;15.50;99794.00;;;;4818805;29;20415;-78
2021/10/03 11:03:06;;;;;;;7.90;4.25;;;;;15.50;99808.00;;;;4819422;29;20559;-79
2021/10/03 11:05:46;;;;;;;16.58;4.75;;;;;15.60;99845.00;;;;4820633;29;20327;-78
2021/10/03 11:08:20;;;;;;;18.33;7.22;;;;;15.50;99849.00;;;;4820606;29;20153;-78
2021/10/03 11:11:09;;;;;;;23.52;7.82;;;;;15.60;99828.00;;;;4820700;29;20071;-78
2021/10/03 11:13:46;;;;;;;20.42;7.85;;;;;15.80;99771.00;;;;4819925;29;20050;-77
2021/10/03 11:16:25;;;;;;;18.38;7.70;;;;;15.90;99752.00;;;;4821066;29;20073;-78
2021/10/03 11:19:00;;;;;;;20.73;9.02;;;;;16.20;99749.00;;;;4820569;29;20115;-78
2021/10/03 11:21:36;;;;;;;14.25;7.07;;;;;16.00;99737.00;;;;4820507;29;20133;-78
2021/10/03 11:24:08;;;;;;;12.98;5.53;;;;;15.90;99745.00;;;;4819854;29;20131;-79
2021/10/03 11:27:09;;;;;;;10.90;4.95;;;;;15.90;99755.00;;;;4820292;29;20143;-77
2021/10/03 11:29:59;;;;;;;7.80;4.50;;;;;15.80;99741.00;;;;4813403;29;20092;-81
2021/10/03 11:32:31;;;;;;;9.00;4.10;;;;;15.70;99744.00;;;;4819316;29;20129;-78
2021/10/03 11:35:01;;;;;;;6.65;3.30;;;;;15.70;99766.00;;;;4820742;29;20151;-80
2021/10/03 11:37:48;;;;;;;8.35;4.68;;;;;15.80;99770.00;;;;4820129;29;20062;-77
2021/10/03 11:40:27;;;;;;;10.50;4.70;;;;;15.90;99744.00;;;;4820166;29;20125;-79
2021/10/03 11:42:59;;;;;;;7.13;4.22;;;;;15.90;99719.00;;;;4819961;29;20097;-78
2021/10/03 11:45:34;;;;;;;11.32;3.47;;;;;15.80;99707.00;;;;4819935;29;20046;-78
2021/10/03 11:48:06;;;;;;;6.50;3.15;;;;;15.90;99689.00;;;;4825183;29;20095;-79
2021/10/03 11:50:50;;;;;;;5.60;2.97;;;;;15.90;99713.00;;;;4819954;29;20529;-77
2021/10/03 11:53:23;;;;;;;8.32;3.10;;;;;15.90;99721.00;;;;4783630;30;20158;-78
2021/10/03 11:56:09;;;;;;;4.95;2.50;;;;;15.90;99770.00;;;;4783867;30;20100;-79
2021/10/03 11:58:42;;;;;;;5.63;3.47;;;;;16.00;99845.00;;;;4783559;30;20132;-76
2021/10/03 12:01:12;;;;;;;7.85;3.90;;;;;16.10;99933.00;;;;4783284;30;20059;-78
2021/10/03 12:03:53;;;;;;;4.30;3.30;;;;;16.00;99969.00;;;;4781805;29;20055;-77
2021/10/03 12:06:33;;;;;;;7.70;3.40;;;;;16.30;99920.00;;;;4783802;30;20535;-79
2021/10/03 12:09:12;;;;;;;4.68;3.08;;;;;17.30;99857.00;;;;4781738;29;20051;-79
2021/10/03 12:11:50;;;;;;;4.95;3.70;;;;;18.20;99885.00;;;;4783396;30;20047;-78
2021/10/03 12:14:19;;;;;;;5.30;2.80;;;;;18.20;99930.00;;;;4783808;30;20047;-78
2021/10/03 12:16:54;;;;;;;5.70;2.75;;;;;17.80;99940.00;;;;4797461;29;20057;-77
2021/10/03 12:19:28;;;;;;;5.32;3.30;;;;;19.30;99771.00;;;;4800849;29;20108;-77
2021/10/03 12:22:05;;;;;;;4.15;2.50;;;;;21.20;99867.00;;;;4801305;29;20126;-76
2021/10/03 12:24:34;;;;;;;4.95;2.60;;;;;19.70;99925.00;;;;4800896;29;20116;-76
2021/10/03 12:27:03;;;;;;;4.15;2.70;;;;;18.30;99952.00;;;;4801102;29;20058;-76